Manhattan, Montana
Current Conditions -  °F | °C
As of 10:56 PM on Saturday 20 Dec 2014 (Local Time) from KBZN Reporting Station
Overcast Overcast  
Wind Chill: 27°   Ceiling: 7000
Heat Index: 32°   Visibility: 10mi
Dew Point: 26°   Wind: 5mph
Humidity: 79%   Direction: 160°SSE
Pressure: 29.71"   Gusts: NA
Location:  45.86°N, 111.33°W
Report Text: KBZN 210556Z 16004KT 10SM OVC070 00/M03 A2971 RMK AO2 SLP087 T00001033 10011 21017 56012
Loading
Personal Weather Stations






























Interactive Weather Map New forecast layout! Learn more

10-Day Weather Forecast

Advertisements
Track Severe Weather on mobile